createdAt,value
2023-04-05T00:00:03.170Z,60
2023-04-05T00:20:02.724Z,60
2023-04-05T00:40:03.250Z,60
2023-04-05T01:00:02.730Z,61
2023-04-05T01:20:03.271Z,61
2023-04-05T01:40:02.798Z,62
2023-04-05T02:00:03.305Z,62
2023-04-05T02:20:02.901Z,63
2023-04-05T02:40:02.285Z,63
2023-04-05T03:00:03.086Z,64
2023-04-05T03:20:02.710Z,63
2023-04-05T03:40:03.185Z,63
2023-04-05T04:00:02.695Z,63
2023-04-05T04:20:02.315Z,63
2023-04-05T04:40:03.242Z,63
2023-04-05T05:00:03.004Z,63
2023-04-05T05:20:02.374Z,63
2023-04-05T05:40:02.874Z,63
2023-04-05T06:00:02.827Z,64
2023-04-05T06:20:02.539Z,64
2023-04-05T06:40:02.943Z,63
2023-04-05T07:00:02.580Z,63
2023-04-05T07:20:02.914Z,62
2023-04-05T07:40:02.419Z,61
2023-04-05T08:00:03.098Z,60
2023-04-05T08:20:03.105Z,58
2023-04-05T08:40:03.152Z,54
2023-04-05T09:00:03.094Z,52
2023-04-05T09:20:03.200Z,52
2023-04-05T09:40:03.197Z,51
2023-04-05T10:00:03.128Z,52
2023-04-05T10:20:02.519Z,51
2023-04-05T10:40:02.857Z,51
2023-04-05T11:00:03.989Z,52
2023-04-05T11:20:03.221Z,53
2023-04-05T11:40:02.781Z,52
2023-04-05T12:00:03.577Z,52
2023-04-05T12:20:03.083Z,51
2023-04-05T12:40:02.420Z,50
2023-04-05T13:00:02.807Z,51
2023-04-05T13:20:03.076Z,50
2023-04-05T13:40:03.038Z,50
2023-04-05T14:00:02.968Z,51
2023-04-05T14:20:03.046Z,50
2023-04-05T14:40:02.978Z,50
2023-04-05T15:00:03.073Z,49
2023-04-05T15:20:02.635Z,49
2023-04-05T15:40:04.190Z,49
2023-04-05T16:00:03.618Z,49
2023-04-05T16:20:02.433Z,48
2023-04-05T16:40:02.830Z,48
2023-04-05T17:00:03.872Z,49
2023-04-05T17:20:03.063Z,50
2023-04-05T17:40:02.445Z,50
2023-04-05T18:00:02.957Z,51
2023-04-05T18:20:03.752Z,53
2023-04-05T18:40:03.788Z,54
2023-04-05T19:00:03.343Z,54
2023-04-05T19:20:02.828Z,55
2023-04-05T19:40:02.478Z,55
2023-04-05T20:00:02.969Z,55
2023-04-05T20:20:03.178Z,56
2023-04-05T20:40:03.157Z,57
2023-04-05T21:00:02.919Z,57
2023-04-05T21:20:02.999Z,58
2023-04-05T21:40:03.018Z,59
2023-04-05T22:00:02.769Z,59
2023-04-05T22:20:02.942Z,60
2023-04-05T22:40:02.341Z,60
2023-04-05T23:00:03.271Z,60
2023-04-05T23:20:02.856Z,60
2023-04-05T23:40:03.451Z,61
